createdAt,value
2017-07-14T00:02:24.982Z,91.00
2017-07-14T00:04:52.554Z,91.00
2017-07-14T00:07:20.305Z,91.10
2017-07-14T00:09:47.883Z,91.10
2017-07-14T00:12:15.478Z,91.20
2017-07-14T00:14:43.058Z,91.30
2017-07-14T00:17:10.633Z,91.00
2017-07-14T00:19:38.216Z,91.40
2017-07-14T00:22:05.784Z,91.60
2017-07-14T00:24:33.370Z,91.80
2017-07-14T00:27:01.746Z,91.90
2017-07-14T00:29:30.364Z,91.90
2017-07-14T00:31:57.918Z,91.80
2017-07-14T00:34:25.511Z,91.80
2017-07-14T00:36:53.106Z,91.70
2017-07-14T00:39:21.484Z,91.40
2017-07-14T00:41:49.031Z,91.40
2017-07-14T00:44:16.602Z,91.40
2017-07-14T00:46:44.223Z,91.20
2017-07-14T00:49:12.095Z,91.20
2017-07-14T00:51:39.675Z,91.20
2017-07-14T00:54:07.312Z,91.00
2017-07-14T00:56:34.890Z,91.30
2017-07-14T00:59:02.546Z,91.00
2017-07-14T01:01:30.118Z,91.20
2017-07-14T01:03:57.705Z,91.00
2017-07-14T01:06:26.058Z,91.50
2017-07-14T01:08:53.672Z,91.40
2017-07-14T01:11:21.270Z,91.60
2017-07-14T01:13:48.830Z,91.40
2017-07-14T01:16:16.429Z,91.50
2017-07-14T01:18:44.033Z,91.60
2017-07-14T01:21:11.594Z,91.20
2017-07-14T01:23:39.164Z,91.10
2017-07-14T01:26:06.752Z,91.70
2017-07-14T01:28:34.622Z,91.30
2017-07-14T01:31:02.207Z,92.00
2017-07-14T01:33:29.780Z,92.20
2017-07-14T01:35:58.172Z,92.40
2017-07-14T01:38:25.949Z,92.80
2017-07-14T01:40:53.690Z,92.50
2017-07-14T01:43:21.268Z,92.20
2017-07-14T01:45:48.832Z,92.30
2017-07-14T01:48:16.391Z,91.90
2017-07-14T01:50:44.038Z,91.80
2017-07-14T01:53:11.590Z,91.60
2017-07-14T01:55:40.086Z,91.40
2017-07-14T01:58:07.671Z,90.90
2017-07-14T02:00:35.239Z,91.00
2017-07-14T02:03:02.803Z,91.30
2017-07-14T02:05:30.400Z,91.30
2017-07-14T02:07:57.969Z,91.70
2017-07-14T02:10:25.583Z,91.90
2017-07-14T02:12:53.166Z,92.10
2017-07-14T02:15:20.990Z,92.20
2017-07-14T02:17:48.696Z,91.90
2017-07-14T02:20:16.543Z,91.90
2017-07-14T02:22:44.137Z,92.00
2017-07-14T02:25:11.758Z,92.20
2017-07-14T02:27:39.315Z,92.20
2017-07-14T02:30:06.942Z,92.40
2017-07-14T02:32:35.300Z,92.40
2017-07-14T02:35:02.900Z,92.40
2017-07-14T02:37:30.467Z,92.60
2017-07-14T02:39:58.058Z,92.60
2017-07-14T02:42:25.641Z,92.60
2017-07-14T02:44:53.255Z,92.80
2017-07-14T02:47:20.826Z,92.80
2017-07-14T02:49:48.433Z,92.90
2017-07-14T02:52:15.986Z,92.90
2017-07-14T02:54:43.600Z,93.00
2017-07-14T02:57:11.177Z,93.10
2017-07-14T02:59:38.762Z,93.50
2017-07-14T03:02:06.321Z,93.50
2017-07-14T03:04:33.879Z,93.50
2017-07-14T03:07:01.454Z,93.60
2017-07-14T03:09:29.807Z,93.20
2017-07-14T03:11:57.407Z,93.50
2017-07-14T03:14:25.788Z,93.50
2017-07-14T03:16:53.372Z,93.40
2017-07-14T03:19:20.967Z,93.40
2017-07-14T03:21:48.586Z,93.70
2017-07-14T03:24:16.229Z,93.80
2017-07-14T03:26:43.793Z,93.80
2017-07-14T03:29:12.118Z,93.90
2017-07-14T03:31:39.719Z,93.80
2017-07-14T03:34:07.501Z,93.70
2017-07-14T03:36:35.839Z,93.90
2017-07-14T03:39:03.427Z,93.90
2017-07-14T03:41:30.987Z,93.70
2017-07-14T03:43:58.559Z,94.00
2017-07-14T03:46:26.919Z,93.60
2017-07-14T03:48:54.504Z,93.60
2017-07-14T03:51:22.076Z,93.90
2017-07-14T03:53:49.638Z,94.10
2017-07-14T03:56:17.239Z,94.60
2017-07-14T03:58:44.835Z,94.50
2017-07-14T04:01:12.397Z,94.70
2017-07-14T04:03:40.750Z,95.10
2017-07-14T04:06:08.701Z,94.70
2017-07-14T04:08:36.595Z,95.00
2017-07-14T04:11:04.181Z,95.10
2017-07-14T04:13:32.557Z,95.90
2017-07-14T04:16:00.931Z,98.40
2017-07-14T04:18:28.541Z,98.40
2017-07-14T04:20:56.107Z,97.60
2017-07-14T04:23:23.743Z,95.00
2017-07-14T04:25:51.310Z,91.10
2017-07-14T04:28:18.887Z,87.00
2017-07-14T04:30:46.511Z,83.00
2017-07-14T04:33:14.154Z,78.20
2017-07-14T04:35:41.745Z,78.50
2017-07-14T04:38:10.092Z,71.90
2017-07-14T04:40:37.694Z,71.80
2017-07-14T04:43:05.271Z,67.00
2017-07-14T04:45:33.095Z,66.00
2017-07-14T04:48:01.443Z,63.40
2017-07-14T04:50:29.022Z,62.90
2017-07-14T04:52:56.595Z,59.50
2017-07-14T04:55:24.967Z,57.10
2017-07-14T04:57:52.667Z,57.00
2017-07-14T05:00:20.247Z,56.50
2017-07-14T05:02:47.832Z,53.70
2017-07-14T05:05:15.423Z,52.60
2017-07-14T05:07:43.969Z,49.20
2017-07-14T05:10:11.529Z,49.30
2017-07-14T05:12:39.189Z,49.40
2017-07-14T05:15:06.751Z,48.10
2017-07-14T05:17:34.342Z,47.20
2017-07-14T05:20:01.967Z,46.30
2017-07-14T05:22:29.542Z,45.80
2017-07-14T05:24:57.119Z,45.80
2017-07-14T05:27:24.813Z,47.00
2017-07-14T05:29:53.133Z,46.80
2017-07-14T05:32:20.713Z,46.70
2017-07-14T05:34:48.332Z,47.80
2017-07-14T05:37:16.108Z,49.20
2017-07-14T05:39:43.660Z,49.70
2017-07-14T05:42:11.230Z,50.80
2017-07-14T05:44:38.840Z,51.90
2017-07-14T05:47:06.397Z,54.30
2017-07-14T05:49:34.109Z,56.60
2017-07-14T05:52:01.676Z,58.70
2017-07-14T05:54:29.247Z,59.60
2017-07-14T05:56:56.814Z,61.40
2017-07-14T05:59:24.775Z,62.70
2017-07-14T06:04:27.073Z,62.00
2017-07-14T06:06:54.675Z,61.80
2017-07-14T06:09:23.036Z,59.10
2017-07-14T06:11:50.680Z,59.00
2017-07-14T06:14:18.256Z,53.50
2017-07-14T06:16:45.830Z,51.00
2017-07-14T06:19:13.435Z,50.30
2017-07-14T06:21:41.000Z,49.50
2017-07-14T06:24:08.595Z,46.70
2017-07-14T06:26:36.190Z,45.50
2017-07-14T06:29:04.859Z,42.60
2017-07-14T06:31:32.431Z,42.50
2017-07-14T06:34:00.006Z,42.40
2017-07-14T06:36:28.366Z,41.00
2017-07-14T06:38:55.975Z,41.60
2017-07-14T06:41:24.491Z,39.00
2017-07-14T06:43:52.063Z,37.40
2017-07-14T06:46:19.623Z,36.80
2017-07-14T06:48:47.216Z,35.60
2017-07-14T06:51:14.799Z,35.70
2017-07-14T06:53:42.433Z,34.00
2017-07-14T06:56:10.799Z,33.60
2017-07-14T06:58:38.370Z,33.50
2017-07-14T07:01:06.734Z,36.40
2017-07-14T07:03:34.286Z,36.30
2017-07-14T07:06:01.871Z,36.20
2017-07-14T07:08:30.232Z,37.10
2017-07-14T07:10:57.811Z,37.10
2017-07-14T07:13:26.150Z,37.60
2017-07-14T07:15:53.749Z,37.50
2017-07-14T07:18:21.332Z,38.90
2017-07-14T07:20:48.911Z,37.20
2017-07-14T07:23:16.514Z,35.80
2017-07-14T07:25:44.118Z,33.50
2017-07-14T07:28:11.710Z,30.50
2017-07-14T07:30:39.315Z,31.10
2017-07-14T07:33:07.751Z,27.30
2017-07-14T07:35:36.647Z,27.30
2017-07-14T07:38:04.234Z,27.40
2017-07-14T07:40:31.811Z,27.80
2017-07-14T07:43:00.169Z,26.70
2017-07-14T07:45:27.759Z,26.60
2017-07-14T07:48:00.883Z,27.10
2017-07-14T07:50:28.486Z,27.00
2017-07-14T07:52:56.057Z,26.80
2017-07-14T07:55:23.631Z,26.70
2017-07-14T07:57:51.232Z,26.30
2017-07-14T08:00:18.819Z,27.10
2017-07-14T08:02:52.763Z,25.90
2017-07-14T08:05:20.348Z,25.20
2017-07-14T08:07:47.916Z,24.80
2017-07-14T08:10:15.512Z,24.30
2017-07-14T08:12:43.116Z,23.50
2017-07-14T08:15:10.772Z,24.00
2017-07-14T08:17:38.332Z,25.20
2017-07-14T08:20:06.643Z,26.30
2017-07-14T08:22:34.209Z,25.50
2017-07-14T08:25:01.835Z,25.00
2017-07-14T08:27:29.394Z,24.50
2017-07-14T08:29:56.970Z,26.10
2017-07-14T08:32:24.619Z,25.30
2017-07-14T08:34:52.960Z,22.60
2017-07-14T08:37:20.522Z,22.60
2017-07-14T08:39:48.972Z,22.60
2017-07-14T08:42:16.603Z,23.40
2017-07-14T08:44:44.970Z,24.70
2017-07-14T08:47:13.628Z,26.40
2017-07-14T08:49:41.210Z,26.00
2017-07-14T08:52:08.803Z,26.50
2017-07-14T08:54:36.378Z,28.20
2017-07-14T08:57:03.945Z,27.50
2017-07-14T08:59:31.598Z,27.00
2017-07-14T09:01:59.183Z,25.90
2017-07-14T09:04:26.804Z,24.10
2017-07-14T09:06:54.385Z,25.50
2017-07-14T09:09:21.974Z,26.20
2017-07-14T09:11:49.546Z,25.70
2017-07-14T09:14:17.318Z,24.10
2017-07-14T09:16:44.882Z,26.60
2017-07-14T09:19:12.487Z,24.00
2017-07-14T09:21:40.067Z,24.00
2017-07-14T09:24:07.680Z,25.50
2017-07-14T09:26:36.062Z,26.50
2017-07-14T09:29:04.509Z,25.50
2017-07-14T09:31:32.095Z,25.40
2017-07-14T09:33:59.692Z,24.30
2017-07-14T09:36:27.305Z,24.80
2017-07-14T09:38:54.871Z,24.70
2017-07-14T09:41:22.462Z,26.30
2017-07-14T09:43:50.153Z,26.80
2017-07-14T09:46:17.724Z,25.60
2017-07-14T09:48:45.327Z,25.10
2017-07-14T09:51:12.946Z,27.50
2017-07-14T09:53:40.566Z,26.00
2017-07-14T09:56:08.653Z,26.50
2017-07-14T09:58:36.255Z,26.40
2017-07-14T10:01:03.841Z,27.50
2017-07-14T10:03:31.479Z,25.70
2017-07-14T10:05:59.091Z,25.00
2017-07-14T10:08:26.674Z,25.70
2017-07-14T10:10:54.339Z,26.10
2017-07-14T10:13:21.926Z,26.70
2017-07-14T10:15:49.524Z,24.30
2017-07-14T10:18:17.099Z,25.70
2017-07-14T10:20:44.688Z,25.50
2017-07-14T10:23:12.304Z,24.50
2017-07-14T10:25:40.674Z,24.10
2017-07-14T10:28:08.271Z,24.10
2017-07-14T10:30:35.987Z,25.20
2017-07-14T10:33:03.581Z,26.50
2017-07-14T10:35:31.198Z,27.90
2017-07-14T10:37:58.789Z,29.70
2017-07-14T10:40:26.367Z,29.00
2017-07-14T10:42:54.710Z,29.40
2017-07-14T10:45:22.335Z,29.30
2017-07-14T10:47:50.427Z,31.00
2017-07-14T10:50:18.012Z,30.50
2017-07-14T10:52:45.600Z,29.60
2017-07-14T10:55:13.955Z,28.60
2017-07-14T10:57:41.531Z,28.60
2017-07-14T11:00:09.177Z,30.00
2017-07-14T11:02:36.734Z,30.00
2017-07-14T11:05:04.316Z,30.30
2017-07-14T11:07:32.108Z,33.10
2017-07-14T11:09:59.731Z,32.20
2017-07-14T11:12:27.314Z,33.70
2017-07-14T11:14:54.881Z,33.80
2017-07-14T11:17:22.534Z,34.20
2017-07-14T11:19:50.891Z,34.30
2017-07-14T11:22:18.475Z,34.20
2017-07-14T11:24:46.843Z,34.30
2017-07-14T11:27:14.871Z,34.00
2017-07-14T11:29:42.451Z,31.10
2017-07-14T11:32:10.041Z,33.50
2017-07-14T11:34:38.426Z,33.60
2017-07-14T11:37:06.781Z,33.90
2017-07-14T11:39:34.376Z,33.90
2017-07-14T11:42:02.770Z,34.20
2017-07-14T11:44:30.367Z,34.10
2017-07-14T11:46:57.972Z,35.10
2017-07-14T11:49:26.349Z,34.70
2017-07-14T11:51:54.737Z,32.60
2017-07-14T11:54:23.099Z,33.20
2017-07-14T11:56:51.023Z,33.20
2017-07-14T11:59:18.698Z,32.00
2017-07-14T12:01:46.285Z,31.70
2017-07-14T12:04:13.867Z,32.00
2017-07-14T12:06:42.236Z,33.40
2017-07-14T12:09:09.819Z,33.40
2017-07-14T12:11:37.459Z,32.40
2017-07-14T12:14:05.054Z,31.70
2017-07-14T12:16:32.667Z,35.00
2017-07-14T12:19:00.302Z,29.80
2017-07-14T12:21:27.896Z,28.70
2017-07-14T12:23:55.529Z,30.40
2017-07-14T12:26:23.352Z,29.10
2017-07-14T12:28:50.946Z,30.60
2017-07-14T12:31:18.527Z,30.70
2017-07-14T12:33:46.200Z,31.60
2017-07-14T12:36:13.771Z,33.50
2017-07-14T12:38:41.380Z,34.50
2017-07-14T12:41:09.054Z,33.10
2017-07-14T12:43:36.683Z,35.50
2017-07-14T12:46:05.280Z,37.50
2017-07-14T12:48:32.883Z,37.20
2017-07-14T12:51:00.499Z,37.00
2017-07-14T12:53:28.148Z,37.80
2017-07-14T12:55:55.755Z,38.70
2017-07-14T12:58:23.348Z,39.30
2017-07-14T13:00:50.938Z,40.20
2017-07-14T13:03:18.535Z,40.00
2017-07-14T13:05:46.209Z,40.20
2017-07-14T13:08:13.787Z,42.40
2017-07-14T13:10:41.381Z,44.10
2017-07-14T13:13:09.771Z,44.50
2017-07-14T13:15:38.159Z,43.90
2017-07-14T13:18:05.743Z,43.80
2017-07-14T13:20:34.006Z,43.20
2017-07-14T13:23:01.577Z,42.30
2017-07-14T13:25:29.175Z,42.10
2017-07-14T13:27:56.847Z,40.70
2017-07-14T13:30:24.410Z,42.30
2017-07-14T13:32:52.239Z,41.40
2017-07-14T13:35:19.811Z,42.00
2017-07-14T13:37:47.398Z,41.70
2017-07-14T13:40:14.967Z,41.10
2017-07-14T13:42:42.619Z,41.50
2017-07-14T13:45:11.687Z,41.60
2017-07-14T13:47:39.344Z,41.90
2017-07-14T13:50:06.932Z,44.40
2017-07-14T13:52:34.496Z,46.50
2017-07-14T13:55:02.122Z,47.90
2017-07-14T13:57:29.704Z,49.10
2017-07-14T13:59:58.497Z,51.60
2017-07-14T14:02:26.155Z,53.40
2017-07-14T14:04:53.752Z,55.50
2017-07-14T14:07:22.330Z,64.40
2017-07-14T14:09:49.956Z,64.20
2017-07-14T14:12:18.443Z,70.40
2017-07-14T14:14:46.091Z,74.70
2017-07-14T14:17:13.695Z,78.10
2017-07-14T14:19:41.392Z,80.20
2017-07-14T14:22:09.020Z,82.70
2017-07-14T14:24:36.623Z,83.50
2017-07-14T14:27:04.348Z,84.00
2017-07-14T14:29:32.807Z,83.30
2017-07-14T14:32:00.404Z,83.30
2017-07-14T14:34:28.391Z,85.00
2017-07-14T14:36:55.999Z,84.50
2017-07-14T14:39:23.838Z,86.70
2017-07-14T14:41:51.412Z,86.50
2017-07-14T14:44:19.008Z,84.70
2017-07-14T14:46:46.627Z,85.10
2017-07-14T14:49:14.396Z,85.20
2017-07-14T14:51:41.996Z,83.10
2017-07-14T14:54:10.474Z,85.30
2017-07-14T14:56:38.043Z,85.20
2017-07-14T14:59:06.457Z,81.80
2017-07-14T15:01:34.083Z,81.70
2017-07-14T15:04:01.725Z,80.20
2017-07-14T15:06:29.386Z,81.80
2017-07-14T15:08:57.007Z,80.80
2017-07-14T15:11:24.602Z,81.60
2017-07-14T15:13:52.192Z,80.60
2017-07-14T15:16:19.789Z,81.40
2017-07-14T15:18:47.360Z,78.20
2017-07-14T15:21:14.928Z,78.40
2017-07-14T15:23:42.593Z,77.60
2017-07-14T15:26:10.194Z,74.80
2017-07-14T15:28:37.811Z,74.90
2017-07-14T15:31:05.462Z,75.10
2017-07-14T15:33:33.066Z,74.80
2017-07-14T15:36:00.656Z,77.30
2017-07-14T15:38:28.989Z,79.30
2017-07-14T15:40:56.590Z,79.10
2017-07-14T15:43:25.106Z,81.70
2017-07-14T15:45:52.698Z,81.80
2017-07-14T15:48:24.093Z,84.70
2017-07-14T15:50:52.448Z,82.40
2017-07-14T15:53:21.179Z,83.10
2017-07-14T15:55:48.767Z,85.80
2017-07-14T15:58:16.436Z,84.00
2017-07-14T16:00:44.083Z,85.00
2017-07-14T16:03:11.677Z,86.50
2017-07-14T16:05:39.277Z,88.00
2017-07-14T16:08:07.662Z,89.90
2017-07-14T16:10:35.246Z,89.90
2017-07-14T16:13:02.848Z,90.00
2017-07-14T16:15:30.497Z,90.40
2017-07-14T16:17:58.101Z,89.70
2017-07-14T16:20:26.470Z,88.70
2017-07-14T16:22:54.829Z,88.30
2017-07-14T16:25:22.454Z,88.00
2017-07-14T16:27:50.048Z,86.60
2017-07-14T16:30:17.656Z,85.60
2017-07-14T16:32:45.215Z,82.20
2017-07-14T16:35:13.583Z,82.50
2017-07-14T16:37:41.927Z,84.50
2017-07-14T16:40:09.523Z,84.50
2017-07-14T16:42:37.914Z,84.90
2017-07-14T16:45:05.498Z,84.80
2017-07-14T16:47:33.567Z,87.00
2017-07-14T16:50:01.220Z,85.40
2017-07-14T16:52:28.810Z,84.20
2017-07-14T16:54:56.395Z,83.10
2017-07-14T16:57:24.094Z,83.60
2017-07-14T16:59:51.712Z,83.40
2017-07-14T17:02:19.306Z,83.60
2017-07-14T17:04:47.641Z,84.90
2017-07-14T17:07:15.216Z,84.80
2017-07-14T17:09:42.837Z,85.00
2017-07-14T17:12:10.423Z,85.00
2017-07-14T17:14:38.082Z,85.60
2017-07-14T17:17:05.678Z,84.00
2017-07-14T17:19:33.246Z,84.00
2017-07-14T17:22:00.887Z,83.00
2017-07-14T17:24:28.480Z,80.10
2017-07-14T17:26:57.116Z,79.00
2017-07-14T17:29:24.718Z,78.80
2017-07-14T17:31:53.081Z,78.50
2017-07-14T17:34:20.666Z,78.20
2017-07-14T17:36:48.298Z,79.80
2017-07-14T17:39:15.883Z,80.20
2017-07-14T17:41:44.236Z,83.30
2017-07-14T17:44:11.827Z,82.50
2017-07-14T17:46:40.275Z,84.90
2017-07-14T17:49:07.855Z,84.80
2017-07-14T17:51:35.516Z,85.40
2017-07-14T17:54:03.111Z,86.10
2017-07-14T17:56:31.429Z,84.20
2017-07-14T17:58:59.035Z,84.00
2017-07-14T18:01:27.406Z,85.30
2017-07-14T18:03:55.784Z,85.60
2017-07-14T18:06:23.379Z,85.50
2017-07-14T18:08:50.973Z,86.70
2017-07-14T18:11:18.573Z,88.20
2017-07-14T18:13:46.147Z,88.50
2017-07-14T18:16:14.519Z,89.40
2017-07-14T18:18:42.919Z,90.10
2017-07-14T18:21:10.548Z,90.00
2017-07-14T18:23:38.167Z,90.80
2017-07-14T18:26:05.751Z,91.40
2017-07-14T18:28:33.333Z,91.90
2017-07-14T18:31:00.964Z,92.00
2017-07-14T18:33:28.577Z,92.10
2017-07-14T18:48:56.239Z,91.60
2017-07-14T18:51:23.858Z,90.40
2017-07-14T18:53:51.492Z,90.30
2017-07-14T18:56:19.131Z,90.10
2017-07-14T18:58:46.707Z,85.90
2017-07-14T19:01:17.319Z,85.40
2017-07-14T19:03:45.647Z,86.10
2017-07-14T19:06:13.259Z,86.90
2017-07-14T19:08:41.067Z,86.80
2017-07-14T19:11:08.678Z,86.50
2017-07-14T19:13:36.284Z,85.40
2017-07-14T19:16:03.920Z,82.80
2017-07-14T19:18:31.545Z,82.60
2017-07-14T19:20:59.175Z,82.10
2017-07-14T19:23:26.786Z,82.10
2017-07-14T19:25:54.473Z,80.40
2017-07-14T19:28:23.283Z,80.50
2017-07-14T19:30:50.890Z,80.60
2017-07-14T19:33:18.740Z,81.40
2017-07-14T19:35:46.432Z,82.20
2017-07-14T19:38:14.035Z,83.00
2017-07-14T19:40:41.631Z,83.20
2017-07-14T19:43:09.219Z,83.90
2017-07-14T19:45:37.600Z,84.80
2017-07-14T19:48:05.939Z,84.60
2017-07-14T19:50:33.536Z,84.60
2017-07-14T19:53:01.903Z,88.00
2017-07-14T19:55:30.239Z,89.90
2017-07-14T19:57:57.893Z,88.90
2017-07-14T20:00:25.498Z,89.40
2017-07-14T20:02:53.096Z,89.40
2017-07-14T20:05:20.671Z,90.00
2017-07-14T20:07:48.411Z,90.20
2017-07-14T20:10:16.006Z,90.40
2017-07-14T20:12:43.590Z,90.40
2017-07-14T20:15:11.286Z,90.00
2017-07-14T20:17:38.928Z,89.30
2017-07-14T20:20:06.523Z,89.50
2017-07-14T20:22:34.887Z,88.60
2017-07-14T20:25:02.600Z,88.50
2017-07-14T20:27:30.185Z,89.20
2017-07-14T20:29:57.725Z,88.20
2017-07-14T20:32:25.301Z,88.10
2017-07-14T20:34:52.852Z,88.50
2017-07-14T20:37:20.427Z,88.80
2017-07-14T20:39:48.054Z,88.90
2017-07-14T20:42:15.730Z,89.10
2017-07-14T20:44:43.359Z,90.00
2017-07-14T20:47:11.748Z,90.50
2017-07-14T20:49:39.345Z,90.50
2017-07-14T20:52:06.917Z,90.50
2017-07-14T20:54:34.506Z,90.40
2017-07-14T20:57:02.917Z,90.40
2017-07-14T20:59:30.527Z,90.30
2017-07-14T21:01:58.116Z,90.20
2017-07-14T21:04:26.493Z,87.60
2017-07-14T21:06:54.100Z,87.50
2017-07-14T21:09:21.816Z,85.00
2017-07-14T21:11:50.178Z,84.10
2017-07-14T21:14:17.747Z,84.00
2017-07-14T21:16:45.344Z,84.50
2017-07-14T21:19:12.949Z,83.50
2017-07-14T21:21:40.543Z,84.00
2017-07-14T21:24:08.888Z,84.70
2017-07-14T21:26:36.478Z,84.10
2017-07-14T21:29:04.210Z,82.60
2017-07-14T21:31:31.788Z,82.40
2017-07-14T21:33:59.373Z,82.50
2017-07-14T21:36:27.723Z,83.70
2017-07-14T21:38:55.314Z,83.50
2017-07-14T21:41:23.688Z,84.40
2017-07-14T21:43:52.092Z,85.50
2017-07-14T21:46:19.672Z,85.00
2017-07-14T21:48:47.254Z,85.70
2017-07-14T21:51:14.842Z,86.30
2017-07-14T21:53:42.404Z,87.50
2017-07-14T21:56:09.983Z,87.70
2017-07-14T21:58:38.403Z,87.40
2017-07-14T22:01:05.996Z,87.30
2017-07-14T22:03:33.567Z,87.90
2017-07-14T22:06:01.163Z,87.30
2017-07-14T22:08:28.717Z,87.10
2017-07-14T22:10:57.030Z,87.70
2017-07-14T22:13:24.620Z,87.70
2017-07-14T22:15:52.208Z,87.70
2017-07-14T22:18:19.783Z,87.90
2017-07-14T22:20:47.400Z,88.70
2017-07-14T22:23:14.958Z,89.30
2017-07-14T22:25:42.565Z,90.00
2017-07-14T22:28:10.164Z,90.20
2017-07-14T22:30:37.739Z,90.40
2017-07-14T22:33:05.323Z,90.60
2017-07-14T22:35:33.657Z,91.00
2017-07-14T22:38:01.288Z,91.00
2017-07-14T22:40:29.610Z,91.00
2017-07-14T22:42:57.231Z,91.00
2017-07-14T22:45:24.840Z,91.20
2017-07-14T22:47:52.440Z,91.50
2017-07-14T22:50:20.783Z,91.60
2017-07-14T22:52:48.386Z,91.60
2017-07-14T22:55:15.981Z,91.50
2017-07-14T22:57:43.624Z,91.10
2017-07-14T23:00:11.218Z,90.90
2017-07-14T23:02:38.812Z,91.00
2017-07-14T23:05:07.159Z,91.70
2017-07-14T23:07:34.755Z,91.70
2017-07-14T23:10:02.328Z,91.90
2017-07-14T23:12:30.663Z,92.10
2017-07-14T23:14:58.250Z,92.00
2017-07-14T23:17:25.843Z,92.20
2017-07-14T23:19:53.422Z,91.90
2017-07-14T23:22:21.018Z,91.70
2017-07-14T23:24:48.589Z,91.80
2017-07-14T23:27:16.174Z,91.80
2017-07-14T23:29:43.771Z,91.90
2017-07-14T23:32:11.335Z,91.80
2017-07-14T23:34:38.906Z,91.90
2017-07-14T23:37:06.603Z,91.90
2017-07-14T23:39:34.949Z,91.80
2017-07-14T23:42:02.552Z,91.80
2017-07-14T23:44:30.906Z,92.00
2017-07-14T23:46:58.642Z,91.90
2017-07-14T23:49:26.243Z,92.10
2017-07-14T23:51:53.796Z,92.40
2017-07-14T23:54:21.349Z,92.40
2017-07-14T23:56:48.951Z,92.00
2017-07-14T23:59:16.575Z,91.90
